Time;durP1;ratioP1;P1;durP2;ratioP2;P2;SDS_P1;SDS_P2;PMS_P1;PMS_P2;Temp;Humidity;BMP_temperature;BMP_pressure;BME280_temperature;BME280_humidity;BME280_pressure;Samples;Min_cycle;Max_cycle;Signal;HPM_P1;HPM_P2
2021/09/12 00:02:20;;;;;;;20.13;11.73;;;;;;;16.66;100.00;97937.97;4981881;28;20089;-78
2021/09/12 00:04:48;;;;;;;22.55;11.73;;;;;;;16.65;100.00;97942.63;4960827;28;20066;-79
2021/09/12 00:07:14;;;;;;;18.23;11.35;;;;;;;16.70;100.00;97938.84;4992309;28;20046;-78
2021/09/12 00:09:41;;;;;;;21.92;11.15;;;;;;;16.76;100.00;97940.22;4993278;28;20058;-80
2021/09/12 00:12:08;;;;;;;17.60;11.20;;;;;;;16.65;100.00;97939.09;4975358;28;20608;-79
2021/09/12 00:14:34;;;;;;;15.30;10.88;;;;;;;16.86;100.00;97936.19;4974837;28;20042;-79
2021/09/12 00:17:01;;;;;;;16.58;11.13;;;;;;;16.93;100.00;97934.44;4975463;28;20053;-79
2021/09/12 00:19:28;;;;;;;20.13;10.88;;;;;;;16.87;100.00;97933.13;4994118;28;20134;-79
2021/09/12 00:21:54;;;;;;;16.45;11.57;;;;;;;16.97;100.00;97927.13;4994233;28;20046;-79
2021/09/12 00:24:21;;;;;;;15.88;10.38;;;;;;;16.98;100.00;97928.72;4978634;28;20124;-79
2021/09/12 00:26:48;;;;;;;19.75;10.23;;;;;;;17.01;100.00;97925.28;4978623;28;20046;-79
2021/09/12 00:29:16;;;;;;;13.18;9.77;;;;;;;17.09;100.00;97921.59;4995256;28;20042;-80
2021/09/12 00:31:43;;;;;;;14.63;8.23;;;;;;;17.19;100.00;97920.28;4963890;28;20038;-80
2021/09/12 00:34:09;;;;;;;22.00;8.68;;;;;;;17.26;100.00;97915.81;4979705;28;20035;-80
2021/09/12 00:36:36;;;;;;;14.43;8.77;;;;;;;17.29;100.00;97917.06;4981076;28;20149;-80
2021/09/12 00:39:04;;;;;;;13.18;8.55;;;;;;;17.23;100.00;97912.97;5005466;28;20105;-80
2021/09/12 00:41:35;;;;;;;16.48;8.73;;;;;;;17.23;100.00;97919.25;4992661;28;20038;-80
2021/09/12 00:44:02;;;;;;;20.60;9.35;;;;;;;17.24;100.00;97929.03;4991345;28;20039;-79
2021/09/12 00:46:29;;;;;;;13.93;9.90;;;;;;;17.19;100.00;97912.06;4975823;28;20046;-80
2021/09/12 00:48:56;;;;;;;15.18;9.23;;;;;;;17.12;100.00;97907.22;4968568;28;20076;-80
2021/09/12 00:51:23;;;;;;;16.75;8.95;;;;;;;17.21;100.00;97910.59;5018948;28;20680;-80
2021/09/12 00:53:52;;;;;;;16.27;9.52;;;;;;;17.30;100.00;97913.97;5003042;28;20045;-80
2021/09/12 00:56:19;;;;;;;18.85;9.32;;;;;;;17.31;100.00;97917.50;5003426;28;20053;-80
2021/09/12 00:58:47;;;;;;;18.92;9.50;;;;;;;17.20;100.00;97917.22;5020616;28;20508;-80
2021/09/12 01:01:14;;;;;;;14.25;9.13;;;;;;;17.14;100.00;97924.06;5021330;28;20050;-79
2021/09/12 01:03:41;;;;;;;17.48;9.27;;;;;;;17.33;100.00;97909.72;5004371;28;20042;-79
2021/09/12 01:06:09;;;;;;;13.93;9.80;;;;;;;17.46;100.00;97919.44;5005608;28;20042;-79
2021/09/12 01:08:39;;;;;;;14.82;10.27;;;;;;;17.39;100.00;97902.84;5005711;28;20133;-79
2021/09/12 01:11:05;;;;;;;15.93;9.65;;;;;;;17.47;100.00;97901.88;5006376;28;20049;-79
2021/09/12 01:13:40;;;;;;;16.00;10.40;;;;;;;17.50;100.00;97906.63;5017802;28;20089;-80
2021/09/12 01:16:19;;;;;;;15.40;9.80;;;;;;;17.59;100.00;97910.03;4997688;28;20413;-79
2021/09/12 01:18:47;;;;;;;16.05;9.07;;;;;;;17.62;100.00;97916.75;5015121;28;20054;-79
2021/09/12 01:21:19;;;;;;;18.45;9.80;;;;;;;17.58;100.00;97905.69;4997542;28;20046;-79
2021/09/12 01:23:47;;;;;;;15.25;9.90;;;;;;;17.56;100.00;97898.97;5013958;28;20046;-80
2021/09/12 01:26:20;;;;;;;16.77;9.80;;;;;;;17.62;100.00;97906.59;5018908;28;20053;-78
2021/09/12 01:28:47;;;;;;;12.68;8.55;;;;;;;17.57;100.00;97892.38;5019180;28;20088;-79
2021/09/12 01:31:24;;;;;;;19.60;9.05;;;;;;;17.55;100.00;97891.94;5010346;28;20053;-79
2021/09/12 01:33:54;;;;;;;19.25;9.43;;;;;;;17.52;100.00;97898.09;5011669;28;20504;-78
2021/09/12 01:36:20;;;;;;;16.38;9.40;;;;;;;17.52;100.00;97904.34;4993394;28;20046;-79
2021/09/12 01:38:47;;;;;;;18.92;9.90;;;;;;;17.57;100.00;97901.38;5009673;28;20041;-79
2021/09/12 01:41:14;;;;;;;14.60;10.15;;;;;;;17.52;100.00;97895.34;4993963;28;20064;-79
2021/09/12 01:43:49;;;;;;;17.05;10.15;;;;;;;17.54;100.00;97904.81;4994458;28;20226;-80
2021/09/12 01:46:17;;;;;;;16.25;9.63;;;;;;;17.54;100.00;97902.09;4993958;28;20088;-79
2021/09/12 01:48:44;;;;;;;17.63;9.93;;;;;;;17.52;100.00;97898.88;4993927;28;20057;-79
2021/09/12 01:51:11;;;;;;;20.80;9.80;;;;;;;17.56;100.00;97894.31;4993032;28;20045;-79
2021/09/12 01:53:38;;;;;;;16.55;9.10;;;;;;;17.55;100.00;97889.97;5011261;28;20121;-80
2021/09/12 01:56:05;;;;;;;19.55;10.07;;;;;;;17.55;100.00;97891.94;5010084;28;20042;-79
2021/09/12 01:58:32;;;;;;;18.27;9.65;;;;;;;17.55;100.00;97881.75;4996039;28;20133;-80
2021/09/12 02:00:58;;;;;;;13.00;9.93;;;;;;;17.51;100.00;97899.22;4983190;28;20046;-79
2021/09/12 02:03:25;;;;;;;18.45;10.55;;;;;;;17.36;100.00;97898.06;5015391;28;20053;-79
2021/09/12 02:05:52;;;;;;;20.20;10.32;;;;;;;17.36;100.00;97909.81;5016274;28;20045;-79
2021/09/12 02:08:19;;;;;;;20.38;10.25;;;;;;;17.44;100.00;97905.31;5012688;28;20091;-80
2021/09/12 02:10:45;;;;;;;16.80;10.75;;;;;;;17.45;100.00;97893.22;5014227;28;20045;-80
2021/09/12 02:13:12;;;;;;;17.73;9.43;;;;;;;17.56;100.00;97890.78;5013293;28;20097;-79
2021/09/12 02:15:39;;;;;;;13.82;9.82;;;;;;;17.64;100.00;97898.00;5027219;28;20026;-80
2021/09/12 02:18:06;;;;;;;16.38;10.13;;;;;;;17.64;100.00;97887.06;5011522;28;20044;-79
2021/09/12 02:20:33;;;;;;;19.63;10.27;;;;;;;17.64;100.00;97889.78;5010144;28;20062;-79
2021/09/12 02:23:02;;;;;;;18.13;9.88;;;;;;;17.61;100.00;97902.25;4983923;28;20047;-79
2021/09/12 02:25:29;;;;;;;14.15;10.38;;;;;;;17.58;100.00;97899.41;4990010;28;20046;-79
2021/09/12 02:27:56;;;;;;;14.13;9.93;;;;;;;17.65;100.00;97902.34;4997735;28;20058;-79
2021/09/12 02:30:22;;;;;;;16.83;10.07;;;;;;;17.58;100.00;97897.47;4962270;28;20042;-79
2021/09/12 02:32:49;;;;;;;17.50;9.73;;;;;;;17.60;100.00;97905.34;4960944;28;20057;-79
2021/09/12 02:35:17;;;;;;;19.05;10.63;;;;;;;17.58;100.00;97900.22;4979926;28;20046;-79
2021/09/12 02:37:43;;;;;;;21.08;10.77;;;;;;;17.58;100.00;97902.16;4997433;28;20042;-79
2021/09/12 02:40:12;;;;;;;23.38;10.32;;;;;;;17.60;100.00;97900.66;4979244;28;20042;-80
2021/09/12 02:42:39;;;;;;;15.48;9.82;;;;;;;17.59;100.00;97901.03;4996349;28;20057;-79
2021/09/12 02:45:07;;;;;;;18.20;9.77;;;;;;;17.60;100.00;97897.91;4978167;28;20038;-79
2021/09/12 02:47:34;;;;;;;22.30;10.32;;;;;;;17.64;100.00;97898.00;4977740;28;20518;-78
2021/09/12 02:50:02;;;;;;;25.02;10.77;;;;;;;17.49;100.00;97902.31;4976901;28;20050;-78
2021/09/12 02:52:28;;;;;;;12.88;10.07;;;;;;;17.52;100.00;97896.16;4977542;28;20046;-79
2021/09/12 02:54:55;;;;;;;15.90;10.48;;;;;;;17.44;100.00;97906.13;4993492;28;20506;-79
2021/09/12 02:57:22;;;;;;;19.00;11.40;;;;;;;17.50;100.00;97894.91;4975702;28;20383;-79
2021/09/12 02:59:48;;;;;;;16.90;10.65;;;;;;;17.54;100.00;97895.81;4975472;28;20382;-78
2021/09/12 03:02:15;;;;;;;16.40;10.95;;;;;;;17.63;100.00;97893.66;4960722;28;20061;-78
2021/09/12 03:04:42;;;;;;;18.88;11.25;;;;;;;17.66;100.00;97888.28;4974021;28;20391;-79
2021/09/12 03:07:08;;;;;;;20.98;11.10;;;;;;;17.73;100.00;97891.19;4976580;28;20069;-79
2021/09/12 03:09:35;;;;;;;23.50;11.48;;;;;;;17.79;100.00;97906.22;4976759;28;20050;-79
2021/09/12 03:12:01;;;;;;;18.10;11.77;;;;;;;17.82;100.00;97891.81;4994459;28;20045;-79
2021/09/12 03:14:28;;;;;;;23.33;12.10;;;;;;;17.85;100.00;97895.78;4994437;28;20045;-79
2021/09/12 03:16:54;;;;;;;20.95;12.13;;;;;;;17.93;100.00;97897.53;4976632;28;20045;-79
2021/09/12 03:19:21;;;;;;;18.33;11.85;;;;;;;17.99;100.00;97902.38;4975882;28;20066;-80
2021/09/12 03:21:48;;;;;;;20.25;10.80;;;;;;;18.00;100.00;97901.25;4975984;28;20084;-80
2021/09/12 03:24:14;;;;;;;18.10;10.48;;;;;;;17.99;100.00;97898.84;4976361;28;20088;-80
2021/09/12 03:26:41;;;;;;;14.43;11.40;;;;;;;18.00;100.00;97908.66;4976479;28;20045;-79
2021/09/12 03:29:10;;;;;;;18.95;10.82;;;;;;;18.11;100.00;97889.72;4992963;28;20383;-78
2021/09/12 03:31:37;;;;;;;18.95;11.55;;;;;;;18.09;100.00;97886.56;4975801;28;20050;-79
2021/09/12 03:34:03;;;;;;;17.15;11.70;;;;;;;18.08;100.00;97890.44;4976265;28;20049;-80
2021/09/12 03:36:30;;;;;;;23.05;12.40;;;;;;;18.09;100.00;97883.81;4993960;28;20045;-79
2021/09/12 03:38:57;;;;;;;19.70;11.13;;;;;;;18.15;100.00;97887.84;4960636;28;20108;-79
2021/09/12 03:41:23;;;;;;;18.95;12.15;;;;;;;18.11;100.00;97881.50;4977548;28;20517;-79
2021/09/12 03:43:50;;;;;;;18.02;11.45;;;;;;;18.12;100.00;97867.44;4978567;28;20061;-79
2021/09/12 03:46:18;;;;;;;17.55;12.35;;;;;;;18.59;100.00;97878.25;4994147;28;20042;-79
2021/09/12 03:48:45;;;;;;;22.05;12.60;;;;;;;18.13;100.00;97877.25;4978031;28;20145;-80
2021/09/12 03:51:11;;;;;;;23.98;13.30;;;;;;;18.03;100.00;97870.41;4996585;28;20054;-79
2021/09/12 03:53:38;;;;;;;20.73;13.55;;;;;;;17.94;100.00;97878.00;5004982;28;20550;-79
2021/09/12 03:56:05;;;;;;;21.88;12.75;;;;;;;17.89;100.00;97891.19;4992165;28;20045;-80
2021/09/12 03:58:31;;;;;;;24.23;14.07;;;;;;;17.92;100.00;97877.56;4975377;28;20050;-79
2021/09/12 04:01:00;;;;;;;23.33;12.52;;;;;;;17.95;100.00;97881.53;4974574;28;20047;-79
2021/09/12 04:03:27;;;;;;;23.98;13.40;;;;;;;17.84;100.00;97883.22;4974652;28;20076;-79
2021/09/12 04:05:54;;;;;;;20.27;14.30;;;;;;;17.84;100.00;97885.97;4993146;28;20069;-78
2021/09/12 04:08:21;;;;;;;26.85;16.17;;;;;;;17.85;100.00;97885.63;4978289;28;20042;-79
2021/09/12 04:10:47;;;;;;;22.65;14.80;;;;;;;17.92;100.00;97891.28;4977597;28;20145;-79
2021/09/12 04:13:14;;;;;;;22.52;14.40;;;;;;;17.87;100.00;97877.84;4978133;28;20098;-80
2021/09/12 04:15:40;;;;;;;25.05;13.77;;;;;;;17.83;100.00;97876.19;4978896;28;20101;-80
2021/09/12 04:18:10;;;;;;;23.08;13.38;;;;;;;17.82;100.00;97880.06;4978988;28;20038;-80
2021/09/12 04:20:37;;;;;;;26.70;15.07;;;;;;;17.78;100.00;97887.41;4996039;28;20053;-80
2021/09/12 04:23:04;;;;;;;26.77;15.90;;;;;;;17.74;100.00;97892.78;4981659;28;20042;-81
2021/09/12 04:25:31;;;;;;;29.10;16.05;;;;;;;17.74;100.00;97895.53;4996850;28;20092;-80
2021/09/12 04:27:58;;;;;;;23.38;15.70;;;;;;;17.72;100.00;97902.50;4996786;28;20046;-80
2021/09/12 04:30:24;;;;;;;20.20;14.48;;;;;;;17.78;100.00;97898.38;4961555;28;20046;-80
2021/09/12 04:32:51;;;;;;;34.88;17.45;;;;;;;17.85;100.00;97902.06;4975640;28;20082;-80
2021/09/12 04:35:18;;;;;;;30.35;18.55;;;;;;;17.92;100.00;97904.97;4965171;28;20517;-80
2021/09/12 04:37:45;;;;;;;27.63;17.75;;;;;;;17.94;100.00;97905.41;4975474;28;20755;-80
2021/09/12 04:40:12;;;;;;;30.90;19.35;;;;;;;17.90;100.00;97892.78;4975149;28;20049;-79
2021/09/12 04:42:41;;;;;;;37.03;18.90;;;;;;;17.94;100.00;97899.13;4975836;28;20509;-78
2021/09/12 04:45:08;;;;;;;34.17;20.10;;;;;;;17.88;100.00;97906.03;4974072;28;20402;-79
2021/09/12 04:47:34;;;;;;;29.05;19.08;;;;;;;17.97;100.00;97907.44;4974173;28;20049;-79
2021/09/12 04:50:01;;;;;;;30.67;19.30;;;;;;;17.94;100.00;97907.34;4974503;28;20050;-79
2021/09/12 04:52:29;;;;;;;31.48;18.52;;;;;;;18.02;100.00;97909.09;4977547;28;20069;-80
2021/09/12 04:54:56;;;;;;;34.63;20.02;;;;;;;17.98;100.00;97897.28;4977904;28;20278;-81
2021/09/12 04:57:22;;;;;;;32.45;19.75;;;;;;;17.96;100.00;97902.31;4960979;28;20050;-81
2021/09/12 04:59:49;;;;;;;28.77;20.13;;;;;;;18.05;100.00;97911.13;4976826;28;20057;-80
2021/09/12 05:02:16;;;;;;;32.70;20.33;;;;;;;18.06;100.00;97896.28;4990959;28;20057;-80
2021/09/12 05:04:46;;;;;;;28.95;19.30;;;;;;;18.02;100.00;97903.63;4990801;28;20497;-80
2021/09/12 05:07:13;;;;;;;32.90;19.55;;;;;;;18.01;100.00;97891.09;4974501;28;20116;-81
2021/09/12 05:09:39;;;;;;;30.63;20.08;;;;;;;18.14;100.00;97902.72;4976029;28;20053;-80
2021/09/12 05:12:06;;;;;;;28.90;19.50;;;;;;;18.11;100.00;97889.72;4975915;28;20300;-81
2021/09/12 05:14:33;;;;;;;31.27;18.75;;;;;;;18.14;100.00;97903.53;4974788;28;20043;-80
2021/09/12 05:17:00;;;;;;;31.27;19.80;;;;;;;18.16;100.00;97894.94;4974361;28;20042;-81
2021/09/12 05:19:26;;;;;;;28.90;18.67;;;;;;;18.23;100.00;97909.59;4963049;28;20726;-81
2021/09/12 05:21:56;;;;;;;30.02;18.80;;;;;;;18.25;100.00;97904.53;4977145;28;20047;-80
2021/09/12 05:24:22;;;;;;;32.00;18.98;;;;;;;18.22;100.00;97905.25;4976786;28;20058;-81
2021/09/12 05:26:49;;;;;;;29.23;19.10;;;;;;;18.20;100.00;97907.56;4975277;28;20405;-81
2021/09/12 05:29:18;;;;;;;30.38;18.88;;;;;;;18.20;100.00;97904.00;4994582;28;20053;-82
2021/09/12 05:31:44;;;;;;;29.10;18.50;;;;;;;18.25;100.00;97907.28;4976466;28;20057;-80
2021/09/12 05:34:11;;;;;;;29.73;18.67;;;;;;;18.26;100.00;97911.63;4977415;28;20042;-81
2021/09/12 05:36:37;;;;;;;28.95;18.73;;;;;;;18.31;100.00;97905.06;4994784;28;20050;-81
2021/09/12 05:39:04;;;;;;;31.08;17.40;;;;;;;18.23;100.00;97901.34;4977789;28;20556;-81
2021/09/12 05:41:31;;;;;;;31.08;19.10;;;;;;;18.32;100.00;97892.94;4976287;28;20047;-81
2021/09/12 05:43:59;;;;;;;27.92;17.60;;;;;;;18.38;100.00;97900.50;4993742;28;20046;-81
2021/09/12 05:46:25;;;;;;;28.27;18.08;;;;;;;18.39;100.00;97898.56;4990736;28;20146;-81
2021/09/12 05:48:52;;;;;;;42.17;18.40;;;;;;;18.43;100.00;97891.19;4973231;28;20042;-81
2021/09/12 05:51:21;;;;;;;28.85;17.92;;;;;;;18.25;100.00;97879.88;5004234;22;20050;-82
2021/09/12 05:53:48;;;;;;;24.17;17.08;;;;;;;18.27;100.00;97891.25;4982318;28;20038;-83
2021/09/12 05:56:15;;;;;;;29.58;18.42;;;;;;;18.41;100.00;97902.53;4983319;28;20069;-83
2021/09/12 05:58:41;;;;;;;25.40;16.20;;;;;;;18.88;100.00;97907.06;4985995;28;20043;-82
2021/09/12 06:01:09;;;;;;;27.20;16.40;;;;;;;18.96;100.00;97895.06;4988209;28;20055;-84
2021/09/12 06:03:37;;;;;;;24.63;16.27;;;;;;;18.28;100.00;97897.53;4993137;28;20045;-83
2021/09/12 06:06:04;;;;;;;28.17;17.95;;;;;;;18.14;100.00;97905.47;4965506;28;20573;-83
2021/09/12 06:08:31;;;;;;;32.00;20.02;;;;;;;17.85;100.00;97913.03;4977695;28;20055;-84
2021/09/12 06:11:01;;;;;;;35.42;19.33;;;;;;;17.95;100.00;97920.69;4970593;28;20042;-83
2021/09/12 06:13:28;;;;;;;32.45;19.02;;;;;;;18.10;100.00;97930.03;4990227;28;20659;-84
2021/09/12 06:15:54;;;;;;;28.90;19.45;;;;;;;18.00;100.00;97936.06;4969131;28;20035;-81
2021/09/12 06:18:21;;;;;;;29.25;19.30;;;;;;;17.93;100.00;97919.47;5053903;22;20054;-79
2021/09/12 06:20:48;;;;;;;30.63;18.30;;;;;;;18.18;100.00;97930.97;5035914;28;20191;-80
2021/09/12 06:23:14;;;;;;;26.95;18.35;;;;;;;18.08;100.00;97932.34;5041365;28;20056;-79
2021/09/12 06:25:44;;;;;;;25.75;18.15;;;;;;;18.20;100.00;97924.00;5041635;28;20045;-79
2021/09/12 06:28:10;;;;;;;25.85;17.45;;;;;;;18.29;100.00;97921.88;5028699;28;20045;-82
2021/09/12 06:30:37;;;;;;;24.25;17.20;;;;;;;18.30;100.00;97915.22;5030259;28;20125;-83
2021/09/12 06:33:05;;;;;;;27.45;16.27;;;;;;;18.17;100.00;97916.47;5031128;28;20535;-84
2021/09/12 06:35:33;;;;;;;24.70;16.55;;;;;;;18.14;100.00;97906.25;5042650;28;20033;-84
2021/09/12 06:37:59;;;;;;;27.38;18.73;;;;;;;18.16;100.00;97911.38;5041078;28;20049;-84
2021/09/12 06:40:30;;;;;;;27.95;18.23;;;;;;;18.41;100.00;97926.41;5037863;28;20463;-87
2021/09/12 06:42:58;;;;;;;24.88;17.88;;;;;;;18.54;100.00;97927.91;5034713;28;20547;-85
2021/09/12 06:45:30;;;;;;;23.10;17.02;;;;;;;18.60;100.00;97926.47;5042771;28;20042;-83
2021/09/12 06:47:57;;;;;;;26.92;18.70;;;;;;;18.60;100.00;97930.03;5050737;28;20069;-85
2021/09/12 06:50:24;;;;;;;28.08;19.40;;;;;;;18.62;100.00;97933.19;5052144;28;20059;-84
2021/09/12 06:52:51;;;;;;;27.60;19.08;;;;;;;18.76;100.00;97923.66;5030253;28;20057;-84
2021/09/12 06:55:19;;;;;;;26.35;17.85;;;;;;;18.88;100.00;97924.31;5045765;28;20044;-84
2021/09/12 06:57:58;;;;;;;27.75;17.75;;;;;;;18.99;100.00;97922.59;5009317;28;20069;-85
2021/09/12 07:00:25;;;;;;;25.17;17.60;;;;;;;19.15;100.00;97922.50;5044480;28;20041;-84
2021/09/12 07:02:53;;;;;;;26.17;15.70;;;;;;;19.29;100.00;97920.78;5026421;28;20054;-86
2021/09/12 07:05:20;;;;;;;22.77;15.82;;;;;;;19.37;100.00;97909.94;5046153;28;20044;-85
2021/09/12 07:07:47;;;;;;;21.73;14.52;;;;;;;19.30;100.00;97919.63;5046522;28;20437;-85
2021/09/12 07:10:13;;;;;;;18.05;12.70;;;;;;;19.34;100.00;97916.16;5043605;28;20064;-85
2021/09/12 07:12:40;;;;;;;21.42;12.63;;;;;;;19.32;100.00;97910.22;5023066;28;20045;-84
2021/09/12 07:15:09;;;;;;;16.05;11.63;;;;;;;19.44;100.00;97910.88;5023743;28;20571;-84
2021/09/12 07:17:36;;;;;;;17.20;11.43;;;;;;;19.54;100.00;97910.25;5038837;28;20052;-87
2021/09/12 07:20:04;;;;;;;15.90;9.30;;;;;;;19.64;100.00;97917.13;5052991;28;20048;-84
2021/09/12 07:22:30;;;;;;;17.17;10.60;;;;;;;19.79;100.00;97919.72;5032958;28;20045;-85
2021/09/12 07:24:57;;;;;;;15.02;10.20;;;;;;;20.02;100.00;97922.44;5053797;28;20041;-85
2021/09/12 07:27:24;;;;;;;12.90;9.10;;;;;;;20.08;100.00;97912.69;5052759;28;20094;-86
2021/09/12 07:30:08;;;;;;;12.63;8.77;;;;;;;20.07;100.00;97924.06;5049939;28;20063;-91
2021/09/12 07:32:34;;;;;;;13.18;9.90;;;;;;;19.90;100.00;97917.94;5011373;28;20389;-87
2021/09/12 07:35:01;;;;;;;12.60;8.82;;;;;;;20.14;100.00;97926.94;5024579;28;20053;-84
2021/09/12 07:37:27;;;;;;;16.27;9.23;;;;;;;20.14;100.00;97935.97;5026010;28;20571;-85
2021/09/12 07:39:55;;;;;;;15.50;9.77;;;;;;;20.31;100.00;97921.72;5018334;28;20048;-85
2021/09/12 07:42:21;;;;;;;13.43;9.90;;;;;;;20.48;100.00;97928.63;5027295;28;20045;-87
2021/09/12 07:44:49;;;;;;;14.82;9.73;;;;;;;20.69;100.00;97939.94;5042852;28;20048;-86
2021/09/12 07:47:16;;;;;;;15.23;9.57;;;;;;;20.69;100.00;97928.94;5041873;28;20037;-82
2021/09/12 07:49:43;;;;;;;12.13;9.00;;;;;;;20.63;100.00;97927.66;5037297;28;20045;-86
2021/09/12 07:52:10;;;;;;;14.13;9.38;;;;;;;20.83;100.00;97936.53;5041770;28;20095;-85
2021/09/12 07:54:37;;;;;;;12.40;10.18;;;;;;;21.07;100.00;97925.06;5044451;28;20051;-88
2021/09/12 07:57:08;;;;;;;16.23;9.57;;;;;;;21.38;100.00;97941.16;5031441;28;20052;-86
2021/09/12 07:59:35;;;;;;;12.95;8.80;;;;;;;21.26;100.00;97940.63;5022217;28;20072;-88
2021/09/12 08:02:05;;;;;;;12.48;8.63;;;;;;;20.98;100.00;97938.31;5024374;28;20416;-89
2021/09/12 08:04:32;;;;;;;11.73;8.27;;;;;;;20.79;100.00;97924.72;5010730;28;20136;-87
2021/09/12 08:06:58;;;;;;;12.50;8.13;;;;;;;20.84;100.00;97944.44;5043633;28;20641;-86
2021/09/12 08:09:25;;;;;;;10.18;7.78;;;;;;;21.17;100.00;97923.59;5054160;28;20112;-85
2021/09/12 08:11:52;;;;;;;14.05;7.95;;;;;;;21.73;100.00;97951.75;5052108;28;20419;-87
2021/09/12 08:14:18;;;;;;;10.68;7.03;;;;;;;21.69;100.00;97939.88;5031815;28;20497;-85
2021/09/12 08:16:45;;;;;;;12.80;8.50;;;;;;;22.03;100.00;97952.41;5031465;28;20115;-84
2021/09/12 08:19:12;;;;;;;10.60;7.88;;;;;;;22.19;100.00;97941.91;5047960;28;20389;-84
2021/09/12 08:21:41;;;;;;;9.88;7.93;;;;;;;22.18;100.00;97940.31;5042149;28;20824;-85
2021/09/12 08:24:08;;;;;;;8.13;6.28;;;;;;;21.89;100.00;97959.75;5032018;28;20084;-84
2021/09/12 08:26:35;;;;;;;9.23;6.43;;;;;;;21.78;100.00;97948.63;5048681;28;20060;-87
2021/09/12 08:29:02;;;;;;;10.70;7.82;;;;;;;21.78;100.00;97956.09;5035494;28;20948;-86
2021/09/12 08:31:28;;;;;;;10.88;8.50;;;;;;;21.84;100.00;97969.16;5031655;28;20041;-82
2021/09/12 08:33:55;;;;;;;12.95;7.63;;;;;;;21.82;100.00;97957.72;5030413;28;20500;-84
2021/09/12 08:36:22;;;;;;;8.80;7.43;;;;;;;22.17;100.00;97952.50;5049369;28;20044;-83
2021/09/12 08:38:48;;;;;;;8.95;6.82;;;;;;;22.16;100.00;97952.91;5049503;28;20044;-85
2021/09/12 08:41:15;;;;;;;10.07;6.60;;;;;;;22.47;100.00;97951.53;5046375;28;20545;-81
2021/09/12 08:43:42;;;;;;;10.07;6.85;;;;;;;22.21;100.00;97942.31;5050630;28;20036;-85
2021/09/12 08:46:10;;;;;;;9.82;7.00;;;;;;;22.42;100.00;97957.41;5031802;28;20037;-85
2021/09/12 08:48:44;;;;;;;9.63;7.10;;;;;;;22.71;100.00;97956.44;5049355;28;20045;-81
2021/09/12 08:51:10;;;;;;;9.52;7.22;;;;;;;22.73;100.00;97962.34;5032598;28;20229;-83
2021/09/12 08:53:37;;;;;;;8.50;7.07;;;;;;;22.94;100.00;97957.72;5045388;28;20075;-86
2021/09/12 08:56:04;;;;;;;10.52;7.38;;;;;;;23.03;100.00;97953.81;5018161;28;20571;-82
2021/09/12 08:58:32;;;;;;;8.70;6.55;;;;;;;23.31;100.00;97957.47;5052558;28;20037;-87
2021/09/12 09:01:02;;;;;;;9.90;6.38;;;;;;;23.26;100.00;97941.25;5050308;28;20598;-87
2021/09/12 09:03:37;;;;;;;8.68;6.47;;;;;;;23.38;100.00;97946.44;5050188;28;20056;-86
2021/09/12 09:06:11;;;;;;;10.53;5.93;;;;;;;24.12;100.00;97943.00;5052102;28;20048;-86
2021/09/12 09:08:59;;;;;;;11.27;6.28;;;;;;;23.49;100.00;97952.00;5049723;28;20298;-85
2021/09/12 09:11:37;;;;;;;8.25;6.32;;;;;;;23.32;100.00;97947.19;5031295;28;20584;-87
2021/09/12 09:14:16;;;;;;;8.90;6.40;;;;;;;23.39;100.00;97945.28;5052924;28;20052;-85
2021/09/12 09:16:45;;;;;;;9.48;6.35;;;;;;;22.93;100.00;97925.78;5051286;28;20045;-87
2021/09/12 09:19:11;;;;;;;8.40;6.13;;;;;;;23.29;100.00;97942.44;5033489;28;20059;-86
2021/09/12 09:21:43;;;;;;;7.78;5.80;;;;;;;23.59;100.00;97945.69;5031137;28;20392;-87
2021/09/12 09:24:21;;;;;;;8.77;5.68;;;;;;;23.99;100.00;97942.56;5035313;28;20063;-87
2021/09/12 09:26:53;;;;;;;7.82;5.70;;;;;;;23.90;100.00;97947.69;5036693;28;20049;-84
2021/09/12 09:29:35;;;;;;;7.28;5.28;;;;;;;24.03;100.00;97935.06;5050097;28;20063;-83
2021/09/12 09:32:08;;;;;;;6.88;5.18;;;;;;;24.01;100.00;97936.63;5031890;28;20060;-84
2021/09/12 09:34:37;;;;;;;8.18;6.00;;;;;;;24.09;100.00;97939.03;5056112;28;20051;-86
2021/09/12 09:37:15;;;;;;;9.05;6.20;;;;;;;24.25;100.00;97943.38;5049549;28;20045;-84
2021/09/12 09:39:50;;;;;;;7.30;5.78;;;;;;;23.70;100.00;97945.72;5047410;28;20049;-84
2021/09/12 09:42:37;;;;;;;7.25;5.43;;;;;;;23.88;100.00;97943.75;5050562;28;20044;-83
2021/09/12 09:45:20;;;;;;;7.03;5.28;;;;;;;24.39;100.00;97924.00;5052257;28;20045;-82
2021/09/12 09:47:49;;;;;;;6.55;5.00;;;;;;;23.55;100.00;97933.84;5055853;28;20053;-84
2021/09/12 09:50:20;;;;;;;10.00;5.30;;;;;;;22.83;100.00;97939.53;5038166;28;20488;-81
2021/09/12 09:52:52;;;;;;;11.75;5.50;;;;;;;22.63;100.00;97936.28;5063195;28;20159;-82
2021/09/12 09:55:21;;;;;;;8.77;4.70;;;;;;;22.64;100.00;97932.34;5057459;28;20060;-82
2021/09/12 09:57:51;;;;;;;6.55;4.72;;;;;;;22.90;100.00;97914.69;5063917;28;20128;-81
2021/09/12 10:00:19;;;;;;;6.95;5.30;;;;;;;23.96;100.00;97925.97;5028683;28;20052;-82
2021/09/12 10:02:46;;;;;;;9.52;4.78;;;;;;;25.13;100.00;97927.31;5033597;28;20045;-79
2021/09/12 10:05:17;;;;;;;6.25;4.43;;;;;;;25.00;100.00;97928.97;5034497;28;20049;-76
2021/09/12 10:07:43;;;;;;;5.80;3.78;;;;;;;24.20;100.00;97918.88;5051533;28;20045;-76
2021/09/12 10:10:12;;;;;;;6.80;4.20;;;;;;;23.51;100.00;97908.19;5052228;28;20075;-77
2021/09/12 10:12:46;;;;;;;5.80;4.43;;;;;;;23.12;100.00;97924.66;5033788;28;20171;-76
2021/09/12 10:15:28;;;;;;;5.75;3.85;;;;;;;23.09;100.00;97917.16;5051158;28;20080;-78
2021/09/12 10:17:56;;;;;;;7.95;4.53;;;;;;;23.18;100.00;97909.25;5051727;28;20053;-78
2021/09/12 10:20:25;;;;;;;7.20;5.03;;;;;;;25.22;100.00;97911.03;5051987;28;20041;-77
2021/09/12 10:23:06;;;;;;;9.73;5.45;;;;;;;26.98;100.00;97902.34;5035353;28;20045;-77
2021/09/12 10:25:41;;;;;;;5.82;4.40;;;;;;;26.73;90.31;97902.66;5059400;28;20059;-78
2021/09/12 10:28:09;;;;;;;7.50;4.32;;;;;;;25.58;100.00;97899.72;5042810;28;20059;-79
2021/09/12 10:30:37;;;;;;;5.97;4.22;;;;;;;24.31;100.00;97903.06;5054840;28;20053;-80
2021/09/12 10:33:07;;;;;;;8.57;5.40;;;;;;;23.46;100.00;97901.06;5058716;28;20131;-79
2021/09/12 10:35:51;;;;;;;9.68;5.53;;;;;;;23.04;100.00;97903.72;5022042;28;20049;-79
2021/09/12 10:38:39;;;;;;;6.63;4.60;;;;;;;23.07;100.00;97907.66;5054600;28;20103;-78
2021/09/12 10:41:06;;;;;;;7.70;4.78;;;;;;;23.63;100.00;97907.81;5023439;28;20046;-77
2021/09/12 10:43:38;;;;;;;5.70;4.88;;;;;;;23.94;100.00;97912.56;5006228;28;20276;-78
2021/09/12 10:46:05;;;;;;;6.95;4.80;;;;;;;25.03;100.00;97903.22;5027457;28;20130;-80
2021/09/12 10:48:45;;;;;;;7.57;5.15;;;;;;;24.33;100.00;97903.44;5041864;28;20056;-81
2021/09/12 10:51:17;;;;;;;9.00;5.97;;;;;;;24.80;100.00;97907.69;5060924;28;20045;-82
2021/09/12 10:53:44;;;;;;;8.60;5.10;;;;;;;27.56;100.00;97899.19;5055144;28;20560;-80
2021/09/12 10:56:31;;;;;;;5.82;4.53;;;;;;;26.81;100.00;97884.72;5041315;28;20115;-81
2021/09/12 10:59:13;;;;;;;7.72;4.70;;;;;;;26.11;100.00;97896.53;5061578;28;20131;-80
2021/09/12 11:01:49;;;;;;;6.97;4.47;;;;;;;25.79;100.00;97896.81;5060722;28;20052;-79
2021/09/12 11:04:25;;;;;;;6.03;4.20;;;;;;;26.71;100.00;97890.38;5062290;28;20500;-81
2021/09/12 11:07:02;;;;;;;5.22;3.90;;;;;;;28.43;70.63;97879.41;5061433;28;20043;-81
2021/09/12 11:09:31;;;;;;;5.28;3.92;;;;;;;28.85;63.25;97888.19;5050598;28;20052;-78
2021/09/12 11:12:00;;;;;;;5.45;3.50;;;;;;;29.78;56.43;97870.94;5035495;28;20059;-79
2021/09/12 11:14:28;;;;;;;3.88;3.00;;;;;;;30.33;55.16;97869.97;5016431;28;20747;-79
2021/09/12 11:17:04;;;;;;;5.90;3.78;;;;;;;29.26;53.32;97868.19;5019248;28;20668;-79
2021/09/12 11:19:34;;;;;;;8.32;3.63;;;;;;;30.50;53.50;97865.91;5050010;28;20563;-80
2021/09/12 11:22:01;;;;;;;4.90;3.15;;;;;;;30.83;48.01;97868.16;5036231;28;20049;-78